Terminal Aerodrome Forecast
Issued by NWS

Current Version | Previous Version | Graphics & Text | Print | Product List | Glossary On
Versions: 1 2 3 4 5 6 7 8 9 10 11 12 13 14 15 16 17 18 19 20 21 22
000
FTUS41 KPBZ 231100
TAFMGW
TAF
KMGW 231125Z 2312/2412 VRB03KT P6SM SCT025 OVC100
     FM232300 16003KT 3SM -RA OVC020
     FM240200 VRB03KT 2SM -RASN OVC006=

USA.gov is the U.S. government's official web portal to all federal, state and local government web resources and services.